sensor_id;sensor_type;location;lat;lon;timestamp;temperature;humidity
59007;DHT22;44792;52.760;6.726;2023-03-31T00:00:45;11.40;99.90
59007;DHT22;44792;52.760;6.726;2023-03-31T00:03:14;11.40;99.90
59007;DHT22;44792;52.760;6.726;2023-03-31T00:05:46;11.40;99.90
59007;DHT22;44792;52.760;6.726;2023-03-31T00:08:13;11.40;99.90
59007;DHT22;44792;52.760;6.726;2023-03-31T00:10:43;11.40;99.90
59007;DHT22;44792;52.760;6.726;2023-03-31T00:13:10;11.30;99.90
59007;DHT22;44792;52.760;6.726;2023-03-31T00:15:36;11.30;99.90
59007;DHT22;44792;52.760;6.726;2023-03-31T00:18:02;11.30;99.90
59007;DHT22;44792;52.760;6.726;2023-03-31T00:20:27;11.30;99.90
59007;DHT22;44792;52.760;6.726;2023-03-31T00:22:53;11.30;99.90
59007;DHT22;44792;52.760;6.726;2023-03-31T00:25:22;11.20;99.90
59007;DHT22;44792;52.760;6.726;2023-03-31T00:27:48;11.20;99.90
59007;DHT22;44792;52.760;6.726;2023-03-31T00:30:17;11.10;99.90
59007;DHT22;44792;52.760;6.726;2023-03-31T00:32:43;11.10;99.90
59007;DHT22;44792;52.760;6.726;2023-03-31T00:35:08;11.10;99.90
59007;DHT22;44792;52.760;6.726;2023-03-31T00:37:34;11.00;99.90
59007;DHT22;44792;52.760;6.726;2023-03-31T00:40:00;11.10;99.90
59007;DHT22;44792;52.760;6.726;2023-03-31T00:42:26;11.10;99.90
59007;DHT22;44792;52.760;6.726;2023-03-31T00:47:56;11.00;99.90
59007;DHT22;44792;52.760;6.726;2023-03-31T00:50:27;11.00;99.90
59007;DHT22;44792;52.760;6.726;2023-03-31T00:52:58;10.90;99.90
59007;DHT22;44792;52.760;6.726;2023-03-31T00:55:30;10.90;99.90
59007;DHT22;44792;52.760;6.726;2023-03-31T00:57:59;10.80;99.90
59007;DHT22;44792;52.760;6.726;2023-03-31T01:00:26;10.80;99.90
59007;DHT22;44792;52.760;6.726;2023-03-31T01:02:58;10.80;99.90
59007;DHT22;44792;52.760;6.726;2023-03-31T01:07:59;10.60;99.90
59007;DHT22;44792;52.760;6.726;2023-03-31T01:10:28;10.60;99.90
59007;DHT22;44792;52.760;6.726;2023-03-31T01:12:54;10.60;99.90
59007;DHT22;44792;52.760;6.726;2023-03-31T01:15:22;10.60;99.90
59007;DHT22;44792;52.760;6.726;2023-03-31T01:17:48;10.50;99.90
59007;DHT22;44792;52.760;6.726;2023-03-31T01:28:43;10.40;99.90
59007;DHT22;44792;52.760;6.726;2023-03-31T01:31:30;10.40;99.90
59007;DHT22;44792;52.760;6.726;2023-03-31T01:34:34;10.40;99.90
59007;DHT22;44792;52.760;6.726;2023-03-31T01:42:38;10.40;99.90
59007;DHT22;44792;52.760;6.726;2023-03-31T01:45:26;10.40;99.90
59007;DHT22;44792;52.760;6.726;2023-03-31T01:48:12;10.40;99.90
59007;DHT22;44792;52.760;6.726;2023-03-31T01:51:06;10.40;99.90
59007;DHT22;44792;52.760;6.726;2023-03-31T01:54:22;10.40;99.90
59007;DHT22;44792;52.760;6.726;2023-03-31T01:56:48;10.40;99.90
59007;DHT22;44792;52.760;6.726;2023-03-31T01:59:26;10.40;99.90
59007;DHT22;44792;52.760;6.726;2023-03-31T02:01:58;10.30;99.90
59007;DHT22;44792;52.760;6.726;2023-03-31T02:06:58;10.30;99.90
59007;DHT22;44792;52.760;6.726;2023-03-31T02:09:33;10.30;99.90
59007;DHT22;44792;52.760;6.726;2023-03-31T02:12:04;10.30;99.90
59007;DHT22;44792;52.760;6.726;2023-03-31T02:14:32;10.40;99.90
59007;DHT22;44792;52.760;6.726;2023-03-31T02:16:59;10.30;99.90
59007;DHT22;44792;52.760;6.726;2023-03-31T02:19:37;10.30;99.90
59007;DHT22;44792;52.760;6.726;2023-03-31T02:22:06;10.40;99.90
59007;DHT22;44792;52.760;6.726;2023-03-31T02:24:35;10.40;99.90
59007;DHT22;44792;52.760;6.726;2023-03-31T02:27:15;10.30;99.90
59007;DHT22;44792;52.760;6.726;2023-03-31T02:29:42;10.30;99.90
59007;DHT22;44792;52.760;6.726;2023-03-31T02:32:16;10.40;99.90
59007;DHT22;44792;52.760;6.726;2023-03-31T02:34:43;10.30;99.90
59007;DHT22;44792;52.760;6.726;2023-03-31T02:37:08;10.30;99.90
59007;DHT22;44792;52.760;6.726;2023-03-31T02:39:36;10.30;99.90
59007;DHT22;44792;52.760;6.726;2023-03-31T02:42:03;10.30;99.90
59007;DHT22;44792;52.760;6.726;2023-03-31T02:44:38;10.40;99.90
59007;DHT22;44792;52.760;6.726;2023-03-31T02:47:09;10.30;99.90
59007;DHT22;44792;52.760;6.726;2023-03-31T02:49:38;10.40;99.90
59007;DHT22;44792;52.760;6.726;2023-03-31T02:57:43;10.40;99.90
59007;DHT22;44792;52.760;6.726;2023-03-31T03:00:39;10.40;99.90
59007;DHT22;44792;52.760;6.726;2023-03-31T03:06:07;10.40;99.90
59007;DHT22;44792;52.760;6.726;2023-03-31T03:11:15;10.40;99.90
59007;DHT22;44792;52.760;6.726;2023-03-31T03:13:53;10.40;99.90
59007;DHT22;44792;52.760;6.726;2023-03-31T03:16:44;10.40;99.90
59007;DHT22;44792;52.760;6.726;2023-03-31T03:19:19;10.40;99.90
59007;DHT22;44792;52.760;6.726;2023-03-31T03:21:46;10.50;99.90
59007;DHT22;44792;52.760;6.726;2023-03-31T03:24:14;10.40;99.90
59007;DHT22;44792;52.760;6.726;2023-03-31T03:26:40;10.50;99.90
59007;DHT22;44792;52.760;6.726;2023-03-31T03:29:05;10.40;99.90
59007;DHT22;44792;52.760;6.726;2023-03-31T03:31:31;10.40;99.90
59007;DHT22;44792;52.760;6.726;2023-03-31T03:33:58;10.40;99.90
59007;DHT22;44792;52.760;6.726;2023-03-31T03:36:24;10.50;99.90
59007;DHT22;44792;52.760;6.726;2023-03-31T03:38:50;10.40;99.90
59007;DHT22;44792;52.760;6.726;2023-03-31T03:41:15;10.50;99.90
59007;DHT22;44792;52.760;6.726;2023-03-31T03:43:41;10.40;99.90
59007;DHT22;44792;52.760;6.726;2023-03-31T03:46:07;10.50;99.90
59007;DHT22;44792;52.760;6.726;2023-03-31T03:48:33;10.40;99.90
59007;DHT22;44792;52.760;6.726;2023-03-31T03:51:00;10.40;99.90
59007;DHT22;44792;52.760;6.726;2023-03-31T03:53:25;10.40;99.90
59007;DHT22;44792;52.760;6.726;2023-03-31T03:55:51;10.30;99.90
59007;DHT22;44792;52.760;6.726;2023-03-31T03:58:17;10.40;99.90
59007;DHT22;44792;52.760;6.726;2023-03-31T04:00:44;10.30;99.90
59007;DHT22;44792;52.760;6.726;2023-03-31T04:03:11;10.30;99.90
59007;DHT22;44792;52.760;6.726;2023-03-31T04:05:37;10.30;99.90
59007;DHT22;44792;52.760;6.726;2023-03-31T04:08:03;10.30;99.90
59007;DHT22;44792;52.760;6.726;2023-03-31T04:10:31;10.30;99.90
59007;DHT22;44792;52.760;6.726;2023-03-31T04:12:56;10.30;99.90
59007;DHT22;44792;52.760;6.726;2023-03-31T04:15:22;10.30;99.90
59007;DHT22;44792;52.760;6.726;2023-03-31T04:17:48;10.30;99.90
59007;DHT22;44792;52.760;6.726;2023-03-31T04:20:16;10.30;99.90
59007;DHT22;44792;52.760;6.726;2023-03-31T04:22:42;10.30;99.90
59007;DHT22;44792;52.760;6.726;2023-03-31T04:25:12;10.30;99.90
59007;DHT22;44792;52.760;6.726;2023-03-31T04:27:46;10.30;99.90
59007;DHT22;44792;52.760;6.726;2023-03-31T04:30:15;10.30;99.90
59007;DHT22;44792;52.760;6.726;2023-03-31T04:32:53;10.30;99.90
59007;DHT22;44792;52.760;6.726;2023-03-31T04:35:23;10.30;99.90
59007;DHT22;44792;52.760;6.726;2023-03-31T04:37:50;10.30;99.90
59007;DHT22;44792;52.760;6.726;2023-03-31T04:40:17;10.30;99.90
59007;DHT22;44792;52.760;6.726;2023-03-31T04:42:43;10.20;99.90
59007;DHT22;44792;52.760;6.726;2023-03-31T04:45:10;10.20;99.90
59007;DHT22;44792;52.760;6.726;2023-03-31T04:47:36;10.30;99.90
59007;DHT22;44792;52.760;6.726;2023-03-31T04:50:02;10.30;99.90
59007;DHT22;44792;52.760;6.726;2023-03-31T04:52:28;10.30;99.90
59007;DHT22;44792;52.760;6.726;2023-03-31T04:54:54;10.30;99.90
59007;DHT22;44792;52.760;6.726;2023-03-31T04:57:20;10.30;99.90
59007;DHT22;44792;52.760;6.726;2023-03-31T04:59:45;10.30;99.90
59007;DHT22;44792;52.760;6.726;2023-03-31T05:02:11;10.30;99.90
59007;DHT22;44792;52.760;6.726;2023-03-31T05:04:37;10.30;99.90
59007;DHT22;44792;52.760;6.726;2023-03-31T05:07:03;10.30;99.90
59007;DHT22;44792;52.760;6.726;2023-03-31T05:09:29;10.30;99.90
59007;DHT22;44792;52.760;6.726;2023-03-31T05:11:56;10.30;99.90
59007;DHT22;44792;52.760;6.726;2023-03-31T05:14:22;10.30;99.90
59007;DHT22;44792;52.760;6.726;2023-03-31T05:16:47;10.20;99.90
59007;DHT22;44792;52.760;6.726;2023-03-31T05:19:13;10.30;99.90
59007;DHT22;44792;52.760;6.726;2023-03-31T05:21:39;10.30;99.90
59007;DHT22;44792;52.760;6.726;2023-03-31T05:24:05;10.30;99.90
59007;DHT22;44792;52.760;6.726;2023-03-31T05:26:30;10.30;99.90
59007;DHT22;44792;52.760;6.726;2023-03-31T05:28:56;10.30;99.90
59007;DHT22;44792;52.760;6.726;2023-03-31T05:31:22;10.30;99.90
59007;DHT22;44792;52.760;6.726;2023-03-31T05:33:47;10.30;99.90
59007;DHT22;44792;52.760;6.726;2023-03-31T05:36:15;10.30;99.90
59007;DHT22;44792;52.760;6.726;2023-03-31T05:38:42;10.30;99.90
59007;DHT22;44792;52.760;6.726;2023-03-31T05:41:09;10.20;99.90
59007;DHT22;44792;52.760;6.726;2023-03-31T05:43:37;10.20;99.90
59007;DHT22;44792;52.760;6.726;2023-03-31T05:46:03;10.20;99.90
59007;DHT22;44792;52.760;6.726;2023-03-31T05:48:31;10.20;99.90
59007;DHT22;44792;52.760;6.726;2023-03-31T05:50:57;10.20;99.90
59007;DHT22;44792;52.760;6.726;2023-03-31T05:53:24;10.20;99.90
59007;DHT22;44792;52.760;6.726;2023-03-31T05:55:56;10.20;99.90
59007;DHT22;44792;52.760;6.726;2023-03-31T05:58:21;10.20;99.90
59007;DHT22;44792;52.760;6.726;2023-03-31T06:00:47;10.20;99.90
59007;DHT22;44792;52.760;6.726;2023-03-31T06:03:13;10.20;99.90
59007;DHT22;44792;52.760;6.726;2023-03-31T06:05:38;10.20;99.90
59007;DHT22;44792;52.760;6.726;2023-03-31T06:08:06;10.20;99.90
59007;DHT22;44792;52.760;6.726;2023-03-31T06:10:32;10.20;99.90
59007;DHT22;44792;52.760;6.726;2023-03-31T06:12:57;10.20;99.90
59007;DHT22;44792;52.760;6.726;2023-03-31T06:15:23;10.20;99.90
59007;DHT22;44792;52.760;6.726;2023-03-31T06:17:49;10.20;99.90
59007;DHT22;44792;52.760;6.726;2023-03-31T06:20:14;10.20;99.90
59007;DHT22;44792;52.760;6.726;2023-03-31T06:22:40;10.20;99.90
59007;DHT22;44792;52.760;6.726;2023-03-31T06:25:06;10.20;99.90
59007;DHT22;44792;52.760;6.726;2023-03-31T06:27:32;10.20;99.90
59007;DHT22;44792;52.760;6.726;2023-03-31T06:29:57;10.20;99.90
59007;DHT22;44792;52.760;6.726;2023-03-31T06:32:23;10.20;99.90
59007;DHT22;44792;52.760;6.726;2023-03-31T06:34:49;10.20;99.90
59007;DHT22;44792;52.760;6.726;2023-03-31T06:37:14;10.20;99.90
59007;DHT22;44792;52.760;6.726;2023-03-31T06:39:40;10.20;99.90
59007;DHT22;44792;52.760;6.726;2023-03-31T06:42:06;10.20;99.90
59007;DHT22;44792;52.760;6.726;2023-03-31T06:44:31;10.20;99.90
59007;DHT22;44792;52.760;6.726;2023-03-31T06:46:57;10.20;99.90
59007;DHT22;44792;52.760;6.726;2023-03-31T06:49:23;10.20;99.90
59007;DHT22;44792;52.760;6.726;2023-03-31T06:51:48;10.10;99.90
59007;DHT22;44792;52.760;6.726;2023-03-31T06:54:15;10.10;99.90
59007;DHT22;44792;52.760;6.726;2023-03-31T06:56:40;10.10;99.90
59007;DHT22;44792;52.760;6.726;2023-03-31T06:59:06;10.10;99.90
59007;DHT22;44792;52.760;6.726;2023-03-31T07:01:32;10.20;99.90
59007;DHT22;44792;52.760;6.726;2023-03-31T07:04:02;10.20;99.90
59007;DHT22;44792;52.760;6.726;2023-03-31T07:06:28;10.20;99.90
59007;DHT22;44792;52.760;6.726;2023-03-31T07:08:53;10.20;99.90
59007;DHT22;44792;52.760;6.726;2023-03-31T07:11:20;10.20;99.90
59007;DHT22;44792;52.760;6.726;2023-03-31T07:13:45;10.30;99.90
59007;DHT22;44792;52.760;6.726;2023-03-31T07:16:11;10.30;99.90
59007;DHT22;44792;52.760;6.726;2023-03-31T07:18:38;10.30;99.90
59007;DHT22;44792;52.760;6.726;2023-03-31T07:21:07;10.30;99.90
59007;DHT22;44792;52.760;6.726;2023-03-31T07:23:33;10.40;99.90
59007;DHT22;44792;52.760;6.726;2023-03-31T07:25:59;10.40;99.90
59007;DHT22;44792;52.760;6.726;2023-03-31T07:28:28;10.40;99.90
59007;DHT22;44792;52.760;6.726;2023-03-31T07:30:53;10.50;99.90
59007;DHT22;44792;52.760;6.726;2023-03-31T07:33:19;10.50;99.90
59007;DHT22;44792;52.760;6.726;2023-03-31T07:35:45;10.50;99.90
59007;DHT22;44792;52.760;6.726;2023-03-31T07:38:11;10.50;99.90
59007;DHT22;44792;52.760;6.726;2023-03-31T07:40:39;10.50;99.90
59007;DHT22;44792;52.760;6.726;2023-03-31T07:43:05;10.50;99.90
59007;DHT22;44792;52.760;6.726;2023-03-31T07:45:32;10.50;99.90
59007;DHT22;44792;52.760;6.726;2023-03-31T07:47:58;10.60;99.90
59007;DHT22;44792;52.760;6.726;2023-03-31T07:50:24;10.60;99.90
59007;DHT22;44792;52.760;6.726;2023-03-31T07:52:50;10.60;99.90
59007;DHT22;44792;52.760;6.726;2023-03-31T07:55:17;10.60;99.90
59007;DHT22;44792;52.760;6.726;2023-03-31T07:57:44;10.60;99.90
59007;DHT22;44792;52.760;6.726;2023-03-31T08:00:12;10.60;99.90
59007;DHT22;44792;52.760;6.726;2023-03-31T08:02:39;10.60;99.90
59007;DHT22;44792;52.760;6.726;2023-03-31T08:05:06;10.60;99.90
59007;DHT22;44792;52.760;6.726;2023-03-31T08:07:39;10.60;99.90
59007;DHT22;44792;52.760;6.726;2023-03-31T08:10:08;10.60;99.90
59007;DHT22;44792;52.760;6.726;2023-03-31T08:12:35;10.60;99.90
59007;DHT22;44792;52.760;6.726;2023-03-31T08:15:01;10.60;99.90
59007;DHT22;44792;52.760;6.726;2023-03-31T08:17:26;10.70;99.90
59007;DHT22;44792;52.760;6.726;2023-03-31T08:19:52;10.70;99.90
59007;DHT22;44792;52.760;6.726;2023-03-31T08:22:18;10.60;99.90
59007;DHT22;44792;52.760;6.726;2023-03-31T08:24:43;10.70;99.90
59007;DHT22;44792;52.760;6.726;2023-03-31T08:27:09;10.70;99.90
59007;DHT22;44792;52.760;6.726;2023-03-31T08:29:35;10.70;99.90
59007;DHT22;44792;52.760;6.726;2023-03-31T08:32:00;10.70;99.90
59007;DHT22;44792;52.760;6.726;2023-03-31T08:34:26;10.70;99.90
59007;DHT22;44792;52.760;6.726;2023-03-31T08:36:52;10.70;99.90
59007;DHT22;44792;52.760;6.726;2023-03-31T08:39:19;10.70;99.90
59007;DHT22;44792;52.760;6.726;2023-03-31T08:42:12;10.80;99.90
59007;DHT22;44792;52.760;6.726;2023-03-31T08:44:44;10.80;99.90
59007;DHT22;44792;52.760;6.726;2023-03-31T08:47:20;10.80;99.90
59007;DHT22;44792;52.760;6.726;2023-03-31T08:49:51;10.80;99.90
59007;DHT22;44792;52.760;6.726;2023-03-31T08:52:30;10.80;99.90
59007;DHT22;44792;52.760;6.726;2023-03-31T08:55:02;10.80;99.90
59007;DHT22;44792;52.760;6.726;2023-03-31T08:57:57;10.80;99.90
59007;DHT22;44792;52.760;6.726;2023-03-31T09:00:24;10.90;99.90
59007;DHT22;44792;52.760;6.726;2023-03-31T09:08:32;11.00;99.90
59007;DHT22;44792;52.760;6.726;2023-03-31T09:19:35;11.00;99.90
59007;DHT22;44792;52.760;6.726;2023-03-31T09:22:01;11.00;99.90
59007;DHT22;44792;52.760;6.726;2023-03-31T09:24:50;11.10;99.90
59007;DHT22;44792;52.760;6.726;2023-03-31T09:27:18;11.00;99.90
59007;DHT22;44792;52.760;6.726;2023-03-31T09:29:58;11.00;99.90
59007;DHT22;44792;52.760;6.726;2023-03-31T09:32:28;11.00;99.90
59007;DHT22;44792;52.760;6.726;2023-03-31T09:35:01;11.00;99.90
59007;DHT22;44792;52.760;6.726;2023-03-31T09:37:30;11.10;99.90
59007;DHT22;44792;52.760;6.726;2023-03-31T09:39:59;11.10;99.90
59007;DHT22;44792;52.760;6.726;2023-03-31T09:42:26;11.10;99.90
59007;DHT22;44792;52.760;6.726;2023-03-31T09:44:52;11.20;99.90
59007;DHT22;44792;52.760;6.726;2023-03-31T09:47:40;11.20;99.90
59007;DHT22;44792;52.760;6.726;2023-03-31T09:50:08;11.20;99.90
59007;DHT22;44792;52.760;6.726;2023-03-31T09:52:39;11.30;99.90
59007;DHT22;44792;52.760;6.726;2023-03-31T09:58:15;11.40;99.90
59007;DHT22;44792;52.760;6.726;2023-03-31T10:00:42;11.40;99.90
59007;DHT22;44792;52.760;6.726;2023-03-31T10:03:12;11.30;99.90
59007;DHT22;44792;52.760;6.726;2023-03-31T10:05:58;11.30;99.90
59007;DHT22;44792;52.760;6.726;2023-03-31T10:08:39;11.40;99.90
59007;DHT22;44792;52.760;6.726;2023-03-31T10:11:10;11.30;99.90
59007;DHT22;44792;52.760;6.726;2023-03-31T10:16:14;11.40;99.90
59007;DHT22;44792;52.760;6.726;2023-03-31T10:18:45;11.40;99.90
59007;DHT22;44792;52.760;6.726;2023-03-31T10:21:35;11.50;99.90
59007;DHT22;44792;52.760;6.726;2023-03-31T10:24:08;11.60;99.90
59007;DHT22;44792;52.760;6.726;2023-03-31T10:26:34;11.60;99.90
59007;DHT22;44792;52.760;6.726;2023-03-31T10:29:00;11.70;99.90
59007;DHT22;44792;52.760;6.726;2023-03-31T10:31:34;11.80;99.90
59007;DHT22;44792;52.760;6.726;2023-03-31T10:34:05;11.80;99.90
59007;DHT22;44792;52.760;6.726;2023-03-31T10:36:32;11.80;99.90
59007;DHT22;44792;52.760;6.726;2023-03-31T10:39:05;11.80;99.90
59007;DHT22;44792;52.760;6.726;2023-03-31T10:41:31;11.80;99.90
59007;DHT22;44792;52.760;6.726;2023-03-31T10:43:59;11.80;99.90
59007;DHT22;44792;52.760;6.726;2023-03-31T10:46:47;11.70;99.90
59007;DHT22;44792;52.760;6.726;2023-03-31T10:49:15;11.70;99.90
59007;DHT22;44792;52.760;6.726;2023-03-31T10:51:53;11.70;99.90
59007;DHT22;44792;52.760;6.726;2023-03-31T10:54:19;11.70;99.90
59007;DHT22;44792;52.760;6.726;2023-03-31T10:56:47;11.70;99.90
59007;DHT22;44792;52.760;6.726;2023-03-31T11:13:28;11.80;99.90
59007;DHT22;44792;52.760;6.726;2023-03-31T11:16:15;11.80;99.90
59007;DHT22;44792;52.760;6.726;2023-03-31T11:21:37;11.90;99.90
59007;DHT22;44792;52.760;6.726;2023-03-31T11:29:34;12.00;99.90
59007;DHT22;44792;52.760;6.726;2023-03-31T11:42:59;11.90;99.90
59007;DHT22;44792;52.760;6.726;2023-03-31T11:45:34;11.90;99.90
59007;DHT22;44792;52.760;6.726;2023-03-31T11:48:05;12.00;99.90
59007;DHT22;44792;52.760;6.726;2023-03-31T11:50:36;12.00;99.90
59007;DHT22;44792;52.760;6.726;2023-03-31T11:53:31;12.00;99.90
59007;DHT22;44792;52.760;6.726;2023-03-31T11:55:59;12.00;99.90
59007;DHT22;44792;52.760;6.726;2023-03-31T11:58:35;11.90;99.90
59007;DHT22;44792;52.760;6.726;2023-03-31T12:01:23;12.00;99.90
59007;DHT22;44792;52.760;6.726;2023-03-31T12:04:01;12.00;99.90
59007;DHT22;44792;52.760;6.726;2023-03-31T12:06:34;12.00;99.90
59007;DHT22;44792;52.760;6.726;2023-03-31T12:09:29;12.00;99.90
59007;DHT22;44792;52.760;6.726;2023-03-31T12:17:25;12.00;99.90
59007;DHT22;44792;52.760;6.726;2023-03-31T12:19:57;11.90;99.90
59007;DHT22;44792;52.760;6.726;2023-03-31T12:24:53;11.90;99.90
59007;DHT22;44792;52.760;6.726;2023-03-31T12:27:29;12.00;99.90
59007;DHT22;44792;52.760;6.726;2023-03-31T12:30:11;12.10;99.90
59007;DHT22;44792;52.760;6.726;2023-03-31T12:32:45;12.20;99.90
59007;DHT22;44792;52.760;6.726;2023-03-31T12:35:23;12.30;99.90
59007;DHT22;44792;52.760;6.726;2023-03-31T12:38:26;12.30;99.90
59007;DHT22;44792;52.760;6.726;2023-03-31T12:41:19;12.30;99.90
59007;DHT22;44792;52.760;6.726;2023-03-31T12:43:50;12.40;99.90
59007;DHT22;44792;52.760;6.726;2023-03-31T12:55:00;12.50;99.90
59007;DHT22;44792;52.760;6.726;2023-03-31T12:57:28;12.60;99.90
59007;DHT22;44792;52.760;6.726;2023-03-31T13:02:42;12.50;99.90
59007;DHT22;44792;52.760;6.726;2023-03-31T13:08:07;12.60;99.90
59007;DHT22;44792;52.760;6.726;2023-03-31T13:10:55;12.60;99.90
59007;DHT22;44792;52.760;6.726;2023-03-31T13:13:22;12.60;99.90
59007;DHT22;44792;52.760;6.726;2023-03-31T13:15:57;12.60;99.90
59007;DHT22;44792;52.760;6.726;2023-03-31T13:18:26;12.70;99.90
59007;DHT22;44792;52.760;6.726;2023-03-31T13:21:04;12.70;99.90
59007;DHT22;44792;52.760;6.726;2023-03-31T13:23:35;12.60;99.90
59007;DHT22;44792;52.760;6.726;2023-03-31T13:26:02;12.60;99.90
59007;DHT22;44792;52.760;6.726;2023-03-31T13:28:35;12.60;99.90
59007;DHT22;44792;52.760;6.726;2023-03-31T13:31:03;12.60;99.90
59007;DHT22;44792;52.760;6.726;2023-03-31T13:36:14;12.70;99.90
59007;DHT22;44792;52.760;6.726;2023-03-31T13:52:12;12.80;99.90
59007;DHT22;44792;52.760;6.726;2023-03-31T14:05:42;12.40;99.90
59007;DHT22;44792;52.760;6.726;2023-03-31T14:08:35;12.40;99.90
59007;DHT22;44792;52.760;6.726;2023-03-31T14:11:22;12.40;99.90
59007;DHT22;44792;52.760;6.726;2023-03-31T14:14:12;12.40;99.90
59007;DHT22;44792;52.760;6.726;2023-03-31T14:16:52;12.30;99.90
59007;DHT22;44792;52.760;6.726;2023-03-31T14:27:59;12.20;99.90
59007;DHT22;44792;52.760;6.726;2023-03-31T14:38:32;12.20;99.90
59007;DHT22;44792;52.760;6.726;2023-03-31T14:40:59;12.10;99.90
59007;DHT22;44792;52.760;6.726;2023-03-31T14:43:38;12.00;99.90
59007;DHT22;44792;52.760;6.726;2023-03-31T14:46:08;12.10;99.90
59007;DHT22;44792;52.760;6.726;2023-03-31T14:48:43;12.10;99.90
59007;DHT22;44792;52.760;6.726;2023-03-31T14:51:12;12.10;99.90
59007;DHT22;44792;52.760;6.726;2023-03-31T14:53:38;12.10;99.90
59007;DHT22;44792;52.760;6.726;2023-03-31T14:56:08;12.10;99.90
59007;DHT22;44792;52.760;6.726;2023-03-31T14:58:37;12.10;99.90
59007;DHT22;44792;52.760;6.726;2023-03-31T15:01:06;12.10;99.90
59007;DHT22;44792;52.760;6.726;2023-03-31T15:03:39;12.10;99.90
59007;DHT22;44792;52.760;6.726;2023-03-31T15:06:06;12.20;99.90
59007;DHT22;44792;52.760;6.726;2023-03-31T15:08:33;12.20;99.90
59007;DHT22;44792;52.760;6.726;2023-03-31T15:11:09;12.30;99.90
59007;DHT22;44792;52.760;6.726;2023-03-31T15:13:40;12.40;99.90
59007;DHT22;44792;52.760;6.726;2023-03-31T15:16:44;12.30;99.90
59007;DHT22;44792;52.760;6.726;2023-03-31T15:19:22;12.40;99.90
59007;DHT22;44792;52.760;6.726;2023-03-31T15:21:56;12.40;99.90
59007;DHT22;44792;52.760;6.726;2023-03-31T15:24:22;12.40;99.90
59007;DHT22;44792;52.760;6.726;2023-03-31T15:27:05;12.40;99.90
59007;DHT22;44792;52.760;6.726;2023-03-31T15:29:39;12.40;99.90
59007;DHT22;44792;52.760;6.726;2023-03-31T15:32:28;12.40;99.90
59007;DHT22;44792;52.760;6.726;2023-03-31T15:34:54;12.40;99.90
59007;DHT22;44792;52.760;6.726;2023-03-31T15:37:34;12.40;99.90
59007;DHT22;44792;52.760;6.726;2023-03-31T15:40:02;12.40;99.90
59007;DHT22;44792;52.760;6.726;2023-03-31T15:42:33;12.40;99.90
59007;DHT22;44792;52.760;6.726;2023-03-31T15:47:51;12.40;99.90
59007;DHT22;44792;52.760;6.726;2023-03-31T15:50:20;12.40;99.90
59007;DHT22;44792;52.760;6.726;2023-03-31T15:52:54;12.40;99.90
59007;DHT22;44792;52.760;6.726;2023-03-31T15:57:55;12.40;99.90
59007;DHT22;44792;52.760;6.726;2023-03-31T16:02:57;12.30;99.90
59007;DHT22;44792;52.760;6.726;2023-03-31T16:05:45;12.30;99.90
59007;DHT22;44792;52.760;6.726;2023-03-31T16:08:40;12.30;99.90
59007;DHT22;44792;52.760;6.726;2023-03-31T16:11:08;12.30;99.90
59007;DHT22;44792;52.760;6.726;2023-03-31T16:13:38;12.30;99.90
59007;DHT22;44792;52.760;6.726;2023-03-31T16:16:09;12.30;99.90
59007;DHT22;44792;52.760;6.726;2023-03-31T16:18:44;12.20;99.90
59007;DHT22;44792;52.760;6.726;2023-03-31T16:21:11;12.20;99.90
59007;DHT22;44792;52.760;6.726;2023-03-31T16:23:39;12.20;99.90
59007;DHT22;44792;52.760;6.726;2023-03-31T16:26:07;12.20;99.90
59007;DHT22;44792;52.760;6.726;2023-03-31T16:28:35;12.20;99.90
59007;DHT22;44792;52.760;6.726;2023-03-31T16:31:03;12.20;99.90
59007;DHT22;44792;52.760;6.726;2023-03-31T16:33:30;12.10;99.90
59007;DHT22;44792;52.760;6.726;2023-03-31T16:36:16;12.00;99.90
59007;DHT22;44792;52.760;6.726;2023-03-31T16:38:42;12.00;99.90
59007;DHT22;44792;52.760;6.726;2023-03-31T16:41:08;12.10;99.90
59007;DHT22;44792;52.760;6.726;2023-03-31T16:43:33;12.00;99.90
59007;DHT22;44792;52.760;6.726;2023-03-31T16:46:01;12.00;99.90
59007;DHT22;44792;52.760;6.726;2023-03-31T16:48:29;11.90;99.90
59007;DHT22;44792;52.760;6.726;2023-03-31T16:50:59;11.90;99.90
59007;DHT22;44792;52.760;6.726;2023-03-31T16:53:28;11.90;99.90
59007;DHT22;44792;52.760;6.726;2023-03-31T16:55:55;11.90;99.90
59007;DHT22;44792;52.760;6.726;2023-03-31T16:58:21;11.90;99.90
59007;DHT22;44792;52.760;6.726;2023-03-31T17:00:51;11.90;99.90
59007;DHT22;44792;52.760;6.726;2023-03-31T17:03:17;11.80;99.90
59007;DHT22;44792;52.760;6.726;2023-03-31T17:05:45;11.80;99.90
59007;DHT22;44792;52.760;6.726;2023-03-31T17:08:13;11.80;99.90
59007;DHT22;44792;52.760;6.726;2023-03-31T17:10:40;11.80;99.90
59007;DHT22;44792;52.760;6.726;2023-03-31T17:13:07;11.80;99.90
59007;DHT22;44792;52.760;6.726;2023-03-31T17:15:34;11.80;99.90
59007;DHT22;44792;52.760;6.726;2023-03-31T17:18:01;11.80;99.90
59007;DHT22;44792;52.760;6.726;2023-03-31T17:20:29;11.70;99.90
59007;DHT22;44792;52.760;6.726;2023-03-31T17:22:56;11.70;99.90
59007;DHT22;44792;52.760;6.726;2023-03-31T17:25:24;11.70;99.90
59007;DHT22;44792;52.760;6.726;2023-03-31T17:27:50;11.70;99.90
59007;DHT22;44792;52.760;6.726;2023-03-31T17:30:16;11.70;99.90
59007;DHT22;44792;52.760;6.726;2023-03-31T17:32:42;11.70;99.90
59007;DHT22;44792;52.760;6.726;2023-03-31T17:35:08;11.70;99.90
59007;DHT22;44792;52.760;6.726;2023-03-31T17:37:35;11.70;99.90
59007;DHT22;44792;52.760;6.726;2023-03-31T17:40:02;11.70;99.90
59007;DHT22;44792;52.760;6.726;2023-03-31T17:42:29;11.70;99.90
59007;DHT22;44792;52.760;6.726;2023-03-31T17:44:56;11.60;99.90
59007;DHT22;44792;52.760;6.726;2023-03-31T17:47:23;11.60;99.90
59007;DHT22;44792;52.760;6.726;2023-03-31T17:49:48;11.60;99.90
59007;DHT22;44792;52.760;6.726;2023-03-31T17:52:14;11.60;99.90
59007;DHT22;44792;52.760;6.726;2023-03-31T17:54:40;11.60;99.90
59007;DHT22;44792;52.760;6.726;2023-03-31T17:57:07;11.60;99.90
59007;DHT22;44792;52.760;6.726;2023-03-31T17:59:33;11.50;99.90
59007;DHT22;44792;52.760;6.726;2023-03-31T18:01:59;11.50;99.90
59007;DHT22;44792;52.760;6.726;2023-03-31T18:04:25;11.50;99.90
59007;DHT22;44792;52.760;6.726;2023-03-31T18:06:51;11.50;99.90
59007;DHT22;44792;52.760;6.726;2023-03-31T18:09:17;11.40;99.90
59007;DHT22;44792;52.760;6.726;2023-03-31T18:11:43;11.40;99.90
59007;DHT22;44792;52.760;6.726;2023-03-31T18:14:09;11.30;99.90
59007;DHT22;44792;52.760;6.726;2023-03-31T18:16:35;11.40;99.90
59007;DHT22;44792;52.760;6.726;2023-03-31T18:19:01;11.30;99.90
59007;DHT22;44792;52.760;6.726;2023-03-31T18:21:27;11.30;99.90
59007;DHT22;44792;52.760;6.726;2023-03-31T18:23:54;11.30;99.90
59007;DHT22;44792;52.760;6.726;2023-03-31T18:26:22;11.30;99.90
59007;DHT22;44792;52.760;6.726;2023-03-31T18:28:52;11.30;99.90